sensor_id;sensor_type;location;lat;lon;timestamp;P1;durP1;ratioP1;P2;durP2;ratioP2
8407;SDS011;4241;48.452;9.216;2024-03-08T00:01:44;333.43;;;99.97;;
8407;SDS011;4241;48.452;9.216;2024-03-08T00:04:11;350.97;;;106.63;;
8407;SDS011;4241;48.452;9.216;2024-03-08T00:06:39;347.13;;;103.57;;
8407;SDS011;4241;48.452;9.216;2024-03-08T00:09:06;373.53;;;112.07;;
8407;SDS011;4241;48.452;9.216;2024-03-08T00:11:33;358.17;;;103.83;;
8407;SDS011;4241;48.452;9.216;2024-03-08T00:14:00;364.90;;;107.03;;
8407;SDS011;4241;48.452;9.216;2024-03-08T00:16:27;319.20;;;98.80;;
8407;SDS011;4241;48.452;9.216;2024-03-08T00:18:54;313.17;;;95.77;;
8407;SDS011;4241;48.452;9.216;2024-03-08T00:21:21;315.00;;;97.83;;
8407;SDS011;4241;48.452;9.216;2024-03-08T00:23:49;320.73;;;100.10;;
8407;SDS011;4241;48.452;9.216;2024-03-08T00:26:16;322.03;;;99.43;;
8407;SDS011;4241;48.452;9.216;2024-03-08T00:28:45;313.20;;;95.40;;
8407;SDS011;4241;48.452;9.216;2024-03-08T00:31:12;325.03;;;99.60;;
8407;SDS011;4241;48.452;9.216;2024-03-08T00:33:38;329.63;;;104.07;;
8407;SDS011;4241;48.452;9.216;2024-03-08T00:36:05;330.03;;;104.13;;
8407;SDS011;4241;48.452;9.216;2024-03-08T00:38:32;316.53;;;98.90;;
8407;SDS011;4241;48.452;9.216;2024-03-08T00:41:01;321.13;;;102.13;;
8407;SDS011;4241;48.452;9.216;2024-03-08T00:43:28;294.73;;;92.87;;
8407;SDS011;4241;48.452;9.216;2024-03-08T00:45:55;299.90;;;94.97;;
8407;SDS011;4241;48.452;9.216;2024-03-08T00:48:22;294.73;;;92.77;;
8407;SDS011;4241;48.452;9.216;2024-03-08T00:50:49;301.70;;;95.33;;
8407;SDS011;4241;48.452;9.216;2024-03-08T00:53:16;302.30;;;96.13;;
8407;SDS011;4241;48.452;9.216;2024-03-08T00:55:43;297.73;;;93.57;;
8407;SDS011;4241;48.452;9.216;2024-03-08T00:58:12;307.03;;;98.30;;
8407;SDS011;4241;48.452;9.216;2024-03-08T01:00:39;303.07;;;95.33;;
8407;SDS011;4241;48.452;9.216;2024-03-08T01:03:06;292.60;;;91.73;;
8407;SDS011;4241;48.452;9.216;2024-03-08T01:05:33;301.37;;;95.77;;
8407;SDS011;4241;48.452;9.216;2024-03-08T01:08:00;299.57;;;93.97;;
8407;SDS011;4241;48.452;9.216;2024-03-08T01:10:28;301.27;;;94.90;;
8407;SDS011;4241;48.452;9.216;2024-03-08T01:12:55;294.37;;;91.57;;
8407;SDS011;4241;48.452;9.216;2024-03-08T01:15:25;305.23;;;96.20;;
8407;SDS011;4241;48.452;9.216;2024-03-08T01:17:52;299.43;;;93.00;;
8407;SDS011;4241;48.452;9.216;2024-03-08T01:20:19;304.73;;;95.90;;
8407;SDS011;4241;48.452;9.216;2024-03-08T01:22:46;297.53;;;92.43;;
8407;SDS011;4241;48.452;9.216;2024-03-08T01:25:13;299.20;;;92.80;;
8407;SDS011;4241;48.452;9.216;2024-03-08T01:27:39;301.40;;;93.37;;
8407;SDS011;4241;48.452;9.216;2024-03-08T01:30:06;318.17;;;99.97;;
8407;SDS011;4241;48.452;9.216;2024-03-08T01:32:36;310.03;;;96.33;;
8407;SDS011;4241;48.452;9.216;2024-03-08T01:35:03;307.40;;;93.73;;
8407;SDS011;4241;48.452;9.216;2024-03-08T01:37:31;306.13;;;93.20;;
8407;SDS011;4241;48.452;9.216;2024-03-08T01:39:57;314.40;;;95.70;;
8407;SDS011;4241;48.452;9.216;2024-03-08T01:42:24;323.90;;;101.00;;
8407;SDS011;4241;48.452;9.216;2024-03-08T01:44:51;320.07;;;96.37;;
8407;SDS011;4241;48.452;9.216;2024-03-08T01:47:18;318.00;;;95.33;;
8407;SDS011;4241;48.452;9.216;2024-03-08T01:49:49;328.20;;;99.50;;
8407;SDS011;4241;48.452;9.216;2024-03-08T01:52:16;321.17;;;95.43;;
8407;SDS011;4241;48.452;9.216;2024-03-08T01:54:47;339.87;;;103.97;;
8407;SDS011;4241;48.452;9.216;2024-03-08T01:57:14;339.67;;;99.47;;
8407;SDS011;4241;48.452;9.216;2024-03-08T01:59:41;343.27;;;100.47;;
8407;SDS011;4241;48.452;9.216;2024-03-08T02:02:08;338.67;;;99.03;;
8407;SDS011;4241;48.452;9.216;2024-03-08T02:04:38;341.50;;;99.70;;
8407;SDS011;4241;48.452;9.216;2024-03-08T02:07:07;343.43;;;101.13;;
8407;SDS011;4241;48.452;9.216;2024-03-08T02:09:33;336.43;;;97.90;;
8407;SDS011;4241;48.452;9.216;2024-03-08T02:12:00;339.63;;;99.90;;
8407;SDS011;4241;48.452;9.216;2024-03-08T02:14:27;338.10;;;99.57;;
8407;SDS011;4241;48.452;9.216;2024-03-08T02:16:59;337.40;;;99.50;;
8407;SDS011;4241;48.452;9.216;2024-03-08T02:19:26;334.30;;;98.67;;
8407;SDS011;4241;48.452;9.216;2024-03-08T02:21:54;338.40;;;100.13;;
8407;SDS011;4241;48.452;9.216;2024-03-08T02:24:22;329.73;;;96.50;;
8407;SDS011;4241;48.452;9.216;2024-03-08T02:26:50;340.97;;;101.80;;
8407;SDS011;4241;48.452;9.216;2024-03-08T02:29:18;325.70;;;95.70;;
8407;SDS011;4241;48.452;9.216;2024-03-08T02:31:46;338.80;;;102.13;;
8407;SDS011;4241;48.452;9.216;2024-03-08T02:34:13;329.40;;;96.93;;
8407;SDS011;4241;48.452;9.216;2024-03-08T02:36:40;305.23;;;94.47;;
8407;SDS011;4241;48.452;9.216;2024-03-08T02:39:08;305.33;;;92.53;;
8407;SDS011;4241;48.452;9.216;2024-03-08T02:41:35;319.97;;;98.00;;
8407;SDS011;4241;48.452;9.216;2024-03-08T02:44:02;323.23;;;96.60;;
8407;SDS011;4241;48.452;9.216;2024-03-08T02:46:29;320.33;;;97.67;;
8407;SDS011;4241;48.452;9.216;2024-03-08T02:48:56;313.83;;;94.07;;
8407;SDS011;4241;48.452;9.216;2024-03-08T02:51:23;300.47;;;95.03;;
8407;SDS011;4241;48.452;9.216;2024-03-08T02:53:51;272.73;;;87.17;;
8407;SDS011;4241;48.452;9.216;2024-03-08T02:56:19;286.67;;;94.20;;
8407;SDS011;4241;48.452;9.216;2024-03-08T02:58:47;273.80;;;88.87;;
8407;SDS011;4241;48.452;9.216;2024-03-08T03:01:13;273.97;;;91.50;;
8407;SDS011;4241;48.452;9.216;2024-03-08T03:03:40;265.03;;;89.80;;
8407;SDS011;4241;48.452;9.216;2024-03-08T03:06:07;262.70;;;88.27;;
8407;SDS011;4241;48.452;9.216;2024-03-08T03:08:34;253.70;;;84.73;;
8407;SDS011;4241;48.452;9.216;2024-03-08T03:11:00;263.00;;;89.03;;
8407;SDS011;4241;48.452;9.216;2024-03-08T03:13:28;258.17;;;84.93;;
8407;SDS011;4241;48.452;9.216;2024-03-08T03:15:55;267.23;;;89.63;;
8407;SDS011;4241;48.452;9.216;2024-03-08T03:18:23;262.93;;;86.10;;
8407;SDS011;4241;48.452;9.216;2024-03-08T03:20:51;273.80;;;89.70;;
8407;SDS011;4241;48.452;9.216;2024-03-08T03:23:18;271.63;;;88.33;;
8407;SDS011;4241;48.452;9.216;2024-03-08T03:25:45;277.90;;;89.80;;
8407;SDS011;4241;48.452;9.216;2024-03-08T03:28:12;266.00;;;84.70;;
8407;SDS011;4241;48.452;9.216;2024-03-08T03:30:44;285.03;;;91.30;;
8407;SDS011;4241;48.452;9.216;2024-03-08T03:33:11;272.87;;;85.50;;
8407;SDS011;4241;48.452;9.216;2024-03-08T03:35:40;287.23;;;91.43;;
8407;SDS011;4241;48.452;9.216;2024-03-08T03:38:08;279.10;;;88.03;;
8407;SDS011;4241;48.452;9.216;2024-03-08T03:40:35;293.37;;;92.63;;
8407;SDS011;4241;48.452;9.216;2024-03-08T03:43:02;282.20;;;87.93;;
8407;SDS011;4241;48.452;9.216;2024-03-08T03:45:29;293.17;;;91.97;;
8407;SDS011;4241;48.452;9.216;2024-03-08T03:48:01;283.57;;;87.83;;
8407;SDS011;4241;48.452;9.216;2024-03-08T03:50:28;289.93;;;90.30;;
8407;SDS011;4241;48.452;9.216;2024-03-08T03:52:55;286.20;;;89.33;;
8407;SDS011;4241;48.452;9.216;2024-03-08T03:55:22;293.37;;;90.87;;
8407;SDS011;4241;48.452;9.216;2024-03-08T03:57:49;288.33;;;88.70;;
8407;SDS011;4241;48.452;9.216;2024-03-08T04:00:15;294.80;;;91.07;;
8407;SDS011;4241;48.452;9.216;2024-03-08T04:02:43;290.73;;;89.43;;
8407;SDS011;4241;48.452;9.216;2024-03-08T04:05:11;299.50;;;93.33;;
8407;SDS011;4241;48.452;9.216;2024-03-08T04:07:38;290.43;;;88.53;;
8407;SDS011;4241;48.452;9.216;2024-03-08T04:10:07;296.60;;;93.93;;
8407;SDS011;4241;48.452;9.216;2024-03-08T04:12:35;305.33;;;95.77;;
8407;SDS011;4241;48.452;9.216;2024-03-08T04:15:02;296.67;;;91.73;;
8407;SDS011;4241;48.452;9.216;2024-03-08T04:17:30;297.40;;;91.43;;
8407;SDS011;4241;48.452;9.216;2024-03-08T04:19:56;285.53;;;90.50;;
8407;SDS011;4241;48.452;9.216;2024-03-08T04:22:24;293.53;;;93.13;;
8407;SDS011;4241;48.452;9.216;2024-03-08T04:24:53;293.73;;;90.50;;
8407;SDS011;4241;48.452;9.216;2024-03-08T04:27:20;302.80;;;93.70;;
8407;SDS011;4241;48.452;9.216;2024-03-08T04:29:47;277.33;;;87.20;;
8407;SDS011;4241;48.452;9.216;2024-03-08T04:32:13;289.20;;;91.27;;
8407;SDS011;4241;48.452;9.216;2024-03-08T04:34:40;286.20;;;89.33;;
8407;SDS011;4241;48.452;9.216;2024-03-08T04:37:07;305.33;;;92.87;;
8407;SDS011;4241;48.452;9.216;2024-03-08T04:39:37;311.57;;;96.17;;
8407;SDS011;4241;48.452;9.216;2024-03-08T04:42:04;292.80;;;90.27;;
8407;SDS011;4241;48.452;9.216;2024-03-08T04:44:34;287.83;;;90.07;;
8407;SDS011;4241;48.452;9.216;2024-03-08T04:47:02;280.17;;;90.63;;
8407;SDS011;4241;48.452;9.216;2024-03-08T04:49:30;282.73;;;91.67;;
8407;SDS011;4241;48.452;9.216;2024-03-08T04:51:59;284.50;;;92.07;;
8407;SDS011;4241;48.452;9.216;2024-03-08T04:54:27;277.20;;;88.03;;
8407;SDS011;4241;48.452;9.216;2024-03-08T04:56:56;280.97;;;91.43;;
8407;SDS011;4241;48.452;9.216;2024-03-08T04:59:22;286.00;;;92.33;;
8407;SDS011;4241;48.452;9.216;2024-03-08T05:01:49;291.03;;;93.67;;
8407;SDS011;4241;48.452;9.216;2024-03-08T05:04:16;285.10;;;91.00;;
8407;SDS011;4241;48.452;9.216;2024-03-08T05:06:43;289.13;;;92.40;;
8407;SDS011;4241;48.452;9.216;2024-03-08T05:09:10;286.43;;;90.40;;
8407;SDS011;4241;48.452;9.216;2024-03-08T05:11:39;294.47;;;94.50;;
8407;SDS011;4241;48.452;9.216;2024-03-08T05:14:08;292.50;;;92.63;;
8407;SDS011;4241;48.452;9.216;2024-03-08T05:16:35;293.63;;;94.77;;
8407;SDS011;4241;48.452;9.216;2024-03-08T05:19:01;283.93;;;90.10;;
8407;SDS011;4241;48.452;9.216;2024-03-08T05:21:28;295.53;;;94.60;;
8407;SDS011;4241;48.452;9.216;2024-03-08T05:23:55;287.30;;;90.63;;
8407;SDS011;4241;48.452;9.216;2024-03-08T05:26:22;301.27;;;95.87;;
8407;SDS011;4241;48.452;9.216;2024-03-08T05:28:49;290.27;;;92.17;;
8407;SDS011;4241;48.452;9.216;2024-03-08T05:31:19;291.00;;;94.80;;
8407;SDS011;4241;48.452;9.216;2024-03-08T05:33:48;285.63;;;92.17;;
8407;SDS011;4241;48.452;9.216;2024-03-08T05:36:15;293.10;;;94.77;;
8407;SDS011;4241;48.452;9.216;2024-03-08T05:38:42;285.50;;;90.13;;
8407;SDS011;4241;48.452;9.216;2024-03-08T05:41:09;293.47;;;93.20;;
8407;SDS011;4241;48.452;9.216;2024-03-08T05:43:36;292.40;;;94.63;;
8407;SDS011;4241;48.452;9.216;2024-03-08T05:46:03;292.27;;;94.40;;
8407;SDS011;4241;48.452;9.216;2024-03-08T05:48:32;286.30;;;92.57;;
8407;SDS011;4241;48.452;9.216;2024-03-08T05:50:59;288.00;;;92.23;;
8407;SDS011;4241;48.452;9.216;2024-03-08T05:53:26;279.67;;;89.50;;
8407;SDS011;4241;48.452;9.216;2024-03-08T05:55:56;282.10;;;91.07;;
8407;SDS011;4241;48.452;9.216;2024-03-08T05:58:23;277.87;;;87.57;;
8407;SDS011;4241;48.452;9.216;2024-03-08T06:00:50;288.47;;;92.37;;
8407;SDS011;4241;48.452;9.216;2024-03-08T06:03:17;286.03;;;91.17;;
8407;SDS011;4241;48.452;9.216;2024-03-08T06:05:47;296.60;;;94.47;;
8407;SDS011;4241;48.452;9.216;2024-03-08T06:08:14;296.57;;;93.17;;
8407;SDS011;4241;48.452;9.216;2024-03-08T06:10:41;297.00;;;93.10;;
8407;SDS011;4241;48.452;9.216;2024-03-08T06:13:08;293.33;;;90.43;;
8407;SDS011;4241;48.452;9.216;2024-03-08T06:15:37;293.87;;;91.27;;
8407;SDS011;4241;48.452;9.216;2024-03-08T06:18:04;300.07;;;92.47;;
8407;SDS011;4241;48.452;9.216;2024-03-08T06:20:31;311.90;;;96.63;;
8407;SDS011;4241;48.452;9.216;2024-03-08T06:22:59;299.17;;;92.37;;
8407;SDS011;4241;48.452;9.216;2024-03-08T06:25:26;292.40;;;90.47;;
8407;SDS011;4241;48.452;9.216;2024-03-08T06:27:53;284.10;;;89.93;;
8407;SDS011;4241;48.452;9.216;2024-03-08T06:30:20;290.50;;;92.53;;
8407;SDS011;4241;48.452;9.216;2024-03-08T06:32:47;279.87;;;88.50;;
8407;SDS011;4241;48.452;9.216;2024-03-08T06:35:14;285.57;;;91.30;;
8407;SDS011;4241;48.452;9.216;2024-03-08T06:37:41;276.53;;;88.37;;
8407;SDS011;4241;48.452;9.216;2024-03-08T06:40:11;282.07;;;90.93;;
8407;SDS011;4241;48.452;9.216;2024-03-08T06:42:39;275.97;;;87.40;;
8407;SDS011;4241;48.452;9.216;2024-03-08T06:45:06;281.93;;;90.53;;
8407;SDS011;4241;48.452;9.216;2024-03-08T06:47:35;275.73;;;87.13;;
8407;SDS011;4241;48.452;9.216;2024-03-08T06:50:02;277.47;;;89.07;;
8407;SDS011;4241;48.452;9.216;2024-03-08T06:52:30;283.60;;;92.37;;
8407;SDS011;4241;48.452;9.216;2024-03-08T06:54:57;278.43;;;88.90;;
8407;SDS011;4241;48.452;9.216;2024-03-08T06:57:28;285.57;;;91.50;;
8407;SDS011;4241;48.452;9.216;2024-03-08T06:59:54;291.23;;;93.77;;
8407;SDS011;4241;48.452;9.216;2024-03-08T07:02:22;296.43;;;95.77;;
8407;SDS011;4241;48.452;9.216;2024-03-08T07:04:50;282.37;;;90.47;;
8407;SDS011;4241;48.452;9.216;2024-03-08T07:07:18;287.70;;;92.90;;
8407;SDS011;4241;48.452;9.216;2024-03-08T07:09:45;290.20;;;93.90;;
8407;SDS011;4241;48.452;9.216;2024-03-08T07:12:14;286.07;;;92.63;;
8407;SDS011;4241;48.452;9.216;2024-03-08T07:14:43;280.67;;;88.93;;
8407;SDS011;4241;48.452;9.216;2024-03-08T07:17:10;283.53;;;91.10;;
8407;SDS011;4241;48.452;9.216;2024-03-08T07:19:38;282.27;;;91.10;;
8407;SDS011;4241;48.452;9.216;2024-03-08T07:22:05;284.67;;;90.80;;
8407;SDS011;4241;48.452;9.216;2024-03-08T07:24:33;281.33;;;90.13;;
8407;SDS011;4241;48.452;9.216;2024-03-08T07:27:15;281.03;;;89.40;;
8407;SDS011;4241;48.452;9.216;2024-03-08T07:29:44;283.43;;;89.87;;
8407;SDS011;4241;48.452;9.216;2024-03-08T07:32:11;289.73;;;92.43;;
8407;SDS011;4241;48.452;9.216;2024-03-08T07:34:46;294.10;;;93.67;;
8407;SDS011;4241;48.452;9.216;2024-03-08T07:37:14;292.17;;;92.23;;
8407;SDS011;4241;48.452;9.216;2024-03-08T07:39:41;305.10;;;97.73;;
8407;SDS011;4241;48.452;9.216;2024-03-08T07:42:08;295.90;;;93.63;;
8407;SDS011;4241;48.452;9.216;2024-03-08T07:44:36;301.13;;;94.67;;
8407;SDS011;4241;48.452;9.216;2024-03-08T07:47:05;296.67;;;91.63;;
8407;SDS011;4241;48.452;9.216;2024-03-08T07:49:34;314.23;;;100.73;;
8407;SDS011;4241;48.452;9.216;2024-03-08T07:52:02;301.20;;;94.53;;
8407;SDS011;4241;48.452;9.216;2024-03-08T07:54:32;313.97;;;100.60;;
8407;SDS011;4241;48.452;9.216;2024-03-08T07:56:59;301.63;;;94.40;;
8407;SDS011;4241;48.452;9.216;2024-03-08T07:59:28;313.83;;;99.73;;
8407;SDS011;4241;48.452;9.216;2024-03-08T08:01:54;304.17;;;94.80;;
8407;SDS011;4241;48.452;9.216;2024-03-08T08:04:23;312.73;;;99.07;;
8407;SDS011;4241;48.452;9.216;2024-03-08T08:06:51;304.27;;;94.47;;
8407;SDS011;4241;48.452;9.216;2024-03-08T08:09:19;311.57;;;97.30;;
8407;SDS011;4241;48.452;9.216;2024-03-08T08:11:53;297.93;;;91.67;;
8407;SDS011;4241;48.452;9.216;2024-03-08T08:14:20;309.67;;;96.83;;
8407;SDS011;4241;48.452;9.216;2024-03-08T08:16:47;307.50;;;95.17;;
8407;SDS011;4241;48.452;9.216;2024-03-08T08:19:17;307.80;;;95.07;;
8407;SDS011;4241;48.452;9.216;2024-03-08T08:21:46;304.40;;;93.77;;
8407;SDS011;4241;48.452;9.216;2024-03-08T08:24:13;311.80;;;96.93;;
8407;SDS011;4241;48.452;9.216;2024-03-08T08:26:39;316.90;;;98.17;;
8407;SDS011;4241;48.452;9.216;2024-03-08T08:29:07;315.43;;;97.43;;
8407;SDS011;4241;48.452;9.216;2024-03-08T08:31:33;312.23;;;95.17;;
8407;SDS011;4241;48.452;9.216;2024-03-08T08:34:01;326.33;;;101.37;;
8407;SDS011;4241;48.452;9.216;2024-03-08T08:36:28;321.90;;;98.63;;
8407;SDS011;4241;48.452;9.216;2024-03-08T08:38:57;318.63;;;97.57;;
8407;SDS011;4241;48.452;9.216;2024-03-08T08:41:24;326.13;;;99.57;;
8407;SDS011;4241;48.452;9.216;2024-03-08T08:43:52;322.20;;;98.37;;
8407;SDS011;4241;48.452;9.216;2024-03-08T08:46:19;327.43;;;99.77;;
8407;SDS011;4241;48.452;9.216;2024-03-08T08:48:46;326.93;;;99.00;;
8407;SDS011;4241;48.452;9.216;2024-03-08T08:51:13;330.33;;;100.77;;
8407;SDS011;4241;48.452;9.216;2024-03-08T08:53:40;334.80;;;101.07;;
8407;SDS011;4241;48.452;9.216;2024-03-08T08:56:11;339.97;;;102.73;;
8407;SDS011;4241;48.452;9.216;2024-03-08T08:58:39;341.80;;;103.40;;
8407;SDS011;4241;48.452;9.216;2024-03-08T09:01:07;344.90;;;104.53;;
8407;SDS011;4241;48.452;9.216;2024-03-08T09:03:35;346.77;;;107.60;;
8407;SDS011;4241;48.452;9.216;2024-03-08T09:06:02;341.03;;;104.00;;
8407;SDS011;4241;48.452;9.216;2024-03-08T09:08:29;344.47;;;105.00;;
8407;SDS011;4241;48.452;9.216;2024-03-08T09:10:56;350.17;;;106.47;;
8407;SDS011;4241;48.452;9.216;2024-03-08T09:13:26;349.83;;;105.73;;
8407;SDS011;4241;48.452;9.216;2024-03-08T09:15:53;350.83;;;105.27;;
8407;SDS011;4241;48.452;9.216;2024-03-08T09:18:19;350.83;;;105.03;;
8407;SDS011;4241;48.452;9.216;2024-03-08T09:20:46;360.63;;;110.57;;
8407;SDS011;4241;48.452;9.216;2024-03-08T09:23:13;352.00;;;105.13;;
8407;SDS011;4241;48.452;9.216;2024-03-08T09:25:42;357.53;;;107.70;;
8407;SDS011;4241;48.452;9.216;2024-03-08T09:28:08;356.33;;;106.20;;
8407;SDS011;4241;48.452;9.216;2024-03-08T09:30:38;363.27;;;109.23;;
8407;SDS011;4241;48.452;9.216;2024-03-08T09:33:05;358.47;;;106.10;;
8407;SDS011;4241;48.452;9.216;2024-03-08T09:35:32;367.57;;;109.67;;
8407;SDS011;4241;48.452;9.216;2024-03-08T09:37:59;368.20;;;108.57;;
8407;SDS011;4241;48.452;9.216;2024-03-08T09:40:26;374.77;;;110.80;;
8407;SDS011;4241;48.452;9.216;2024-03-08T09:42:52;365.97;;;106.43;;
8407;SDS011;4241;48.452;9.216;2024-03-08T09:45:20;381.13;;;112.93;;
8407;SDS011;4241;48.452;9.216;2024-03-08T09:47:50;382.00;;;112.60;;
8407;SDS011;4241;48.452;9.216;2024-03-08T09:50:18;386.07;;;114.57;;
8407;SDS011;4241;48.452;9.216;2024-03-08T09:52:46;380.90;;;111.13;;
8407;SDS011;4241;48.452;9.216;2024-03-08T09:55:14;389.37;;;114.80;;
8407;SDS011;4241;48.452;9.216;2024-03-08T09:57:47;382.90;;;112.90;;
8407;SDS011;4241;48.452;9.216;2024-03-08T10:00:41;378.93;;;110.97;;
8407;SDS011;4241;48.452;9.216;2024-03-08T10:03:09;382.30;;;111.03;;
8407;SDS011;4241;48.452;9.216;2024-03-08T10:05:39;389.40;;;113.10;;
8407;SDS011;4241;48.452;9.216;2024-03-08T10:08:07;395.20;;;115.83;;
8407;SDS011;4241;48.452;9.216;2024-03-08T10:10:34;398.17;;;115.83;;
8407;SDS011;4241;48.452;9.216;2024-03-08T10:13:01;400.67;;;117.90;;
8407;SDS011;4241;48.452;9.216;2024-03-08T10:15:28;398.63;;;116.70;;
8407;SDS011;4241;48.452;9.216;2024-03-08T10:17:55;405.53;;;119.47;;
8407;SDS011;4241;48.452;9.216;2024-03-08T10:20:24;404.47;;;117.27;;
8407;SDS011;4241;48.452;9.216;2024-03-08T10:22:51;412.00;;;120.30;;
8407;SDS011;4241;48.452;9.216;2024-03-08T10:25:19;413.60;;;119.53;;
8407;SDS011;4241;48.452;9.216;2024-03-08T10:27:46;416.93;;;121.53;;
8407;SDS011;4241;48.452;9.216;2024-03-08T10:30:13;416.97;;;120.53;;
8407;SDS011;4241;48.452;9.216;2024-03-08T10:32:44;417.40;;;121.23;;
8407;SDS011;4241;48.452;9.216;2024-03-08T10:35:12;419.03;;;120.90;;
8407;SDS011;4241;48.452;9.216;2024-03-08T10:37:43;417.73;;;121.60;;
8407;SDS011;4241;48.452;9.216;2024-03-08T10:40:12;421.43;;;122.77;;
8407;SDS011;4241;48.452;9.216;2024-03-08T10:42:45;420.50;;;122.33;;
8407;SDS011;4241;48.452;9.216;2024-03-08T10:45:19;427.13;;;125.47;;
8407;SDS011;4241;48.452;9.216;2024-03-08T10:47:59;424.33;;;122.67;;
8407;SDS011;4241;48.452;9.216;2024-03-08T10:50:36;429.60;;;125.40;;
8407;SDS011;4241;48.452;9.216;2024-03-08T10:53:05;435.60;;;127.87;;
8407;SDS011;4241;48.452;9.216;2024-03-08T10:55:33;433.30;;;126.03;;
8407;SDS011;4241;48.452;9.216;2024-03-08T10:58:06;440.53;;;130.23;;
8407;SDS011;4241;48.452;9.216;2024-03-08T11:00:33;437.07;;;128.13;;
8407;SDS011;4241;48.452;9.216;2024-03-08T11:03:00;443.13;;;132.23;;
8407;SDS011;4241;48.452;9.216;2024-03-08T11:05:31;438.77;;;129.50;;
8407;SDS011;4241;48.452;9.216;2024-03-08T11:08:03;443.53;;;132.27;;
8407;SDS011;4241;48.452;9.216;2024-03-08T11:10:46;443.33;;;132.23;;
8407;SDS011;4241;48.452;9.216;2024-03-08T11:16:01;441.07;;;130.83;;
8407;SDS011;4241;48.452;9.216;2024-03-08T11:18:31;446.53;;;134.37;;
8407;SDS011;4241;48.452;9.216;2024-03-08T11:21:00;452.90;;;140.40;;
8407;SDS011;4241;48.452;9.216;2024-03-08T11:23:31;448.77;;;136.53;;
8407;SDS011;4241;48.452;9.216;2024-03-08T11:25:58;442.83;;;131.00;;
8407;SDS011;4241;48.452;9.216;2024-03-08T11:28:25;444.77;;;132.20;;
8407;SDS011;4241;48.452;9.216;2024-03-08T11:33:51;440.33;;;129.97;;
8407;SDS011;4241;48.452;9.216;2024-03-08T11:36:20;440.83;;;130.37;;
8407;SDS011;4241;48.452;9.216;2024-03-08T11:38:49;439.30;;;129.13;;
8407;SDS011;4241;48.452;9.216;2024-03-08T11:41:17;440.00;;;128.20;;
8407;SDS011;4241;48.452;9.216;2024-03-08T11:43:46;441.07;;;130.37;;
8407;SDS011;4241;48.452;9.216;2024-03-08T11:46:13;443.93;;;133.00;;
8407;SDS011;4241;48.452;9.216;2024-03-08T11:48:41;438.37;;;127.77;;
8407;SDS011;4241;48.452;9.216;2024-03-08T11:51:09;442.60;;;130.87;;
8407;SDS011;4241;48.452;9.216;2024-03-08T11:53:38;446.20;;;134.90;;
8407;SDS011;4241;48.452;9.216;2024-03-08T11:56:07;441.93;;;130.50;;
8407;SDS011;4241;48.452;9.216;2024-03-08T11:58:36;440.53;;;128.97;;
8407;SDS011;4241;48.452;9.216;2024-03-08T12:01:04;440.03;;;128.87;;
8407;SDS011;4241;48.452;9.216;2024-03-08T12:03:32;440.30;;;129.40;;
8407;SDS011;4241;48.452;9.216;2024-03-08T12:05:59;435.17;;;125.63;;
8407;SDS011;4241;48.452;9.216;2024-03-08T12:08:26;443.60;;;133.30;;
8407;SDS011;4241;48.452;9.216;2024-03-08T12:10:54;444.43;;;134.10;;
8407;SDS011;4241;48.452;9.216;2024-03-08T12:13:26;441.13;;;130.70;;
8407;SDS011;4241;48.452;9.216;2024-03-08T12:15:55;440.90;;;129.07;;
8407;SDS011;4241;48.452;9.216;2024-03-08T12:18:23;444.77;;;132.63;;
8407;SDS011;4241;48.452;9.216;2024-03-08T12:20:51;441.07;;;129.67;;
8407;SDS011;4241;48.452;9.216;2024-03-08T12:23:18;444.00;;;132.33;;
8407;SDS011;4241;48.452;9.216;2024-03-08T12:25:45;441.07;;;130.80;;
8407;SDS011;4241;48.452;9.216;2024-03-08T12:28:12;444.90;;;132.13;;
8407;SDS011;4241;48.452;9.216;2024-03-08T12:30:45;439.77;;;128.10;;
8407;SDS011;4241;48.452;9.216;2024-03-08T12:33:13;445.57;;;132.40;;
8407;SDS011;4241;48.452;9.216;2024-03-08T12:35:49;436.00;;;125.60;;
8407;SDS011;4241;48.452;9.216;2024-03-08T12:38:19;433.57;;;124.00;;
8407;SDS011;4241;48.452;9.216;2024-03-08T12:40:50;437.10;;;127.77;;
8407;SDS011;4241;48.452;9.216;2024-03-08T12:43:21;431.47;;;123.60;;
8407;SDS011;4241;48.452;9.216;2024-03-08T12:45:50;437.90;;;128.23;;
8407;SDS011;4241;48.452;9.216;2024-03-08T12:48:17;434.37;;;125.77;;
8407;SDS011;4241;48.452;9.216;2024-03-08T12:50:45;436.07;;;127.07;;
8407;SDS011;4241;48.452;9.216;2024-03-08T12:53:13;432.87;;;124.83;;
8407;SDS011;4241;48.452;9.216;2024-03-08T12:55:39;436.90;;;127.70;;
8407;SDS011;4241;48.452;9.216;2024-03-08T12:58:06;433.03;;;125.10;;
8407;SDS011;4241;48.452;9.216;2024-03-08T13:00:33;438.17;;;128.63;;
8407;SDS011;4241;48.452;9.216;2024-03-08T13:03:02;430.13;;;122.57;;
8407;SDS011;4241;48.452;9.216;2024-03-08T13:05:31;436.90;;;128.30;;
8407;SDS011;4241;48.452;9.216;2024-03-08T13:07:58;432.37;;;125.13;;
8407;SDS011;4241;48.452;9.216;2024-03-08T13:10:25;439.00;;;130.10;;
8407;SDS011;4241;48.452;9.216;2024-03-08T13:12:52;434.87;;;126.10;;
8407;SDS011;4241;48.452;9.216;2024-03-08T13:15:19;434.83;;;124.80;;
8407;SDS011;4241;48.452;9.216;2024-03-08T13:17:46;436.87;;;127.33;;
8407;SDS011;4241;48.452;9.216;2024-03-08T13:20:15;437.27;;;128.47;;
8407;SDS011;4241;48.452;9.216;2024-03-08T13:22:44;432.70;;;124.07;;
8407;SDS011;4241;48.452;9.216;2024-03-08T13:25:12;435.50;;;124.90;;
8407;SDS011;4241;48.452;9.216;2024-03-08T13:27:39;432.70;;;124.30;;
8407;SDS011;4241;48.452;9.216;2024-03-08T13:30:07;436.17;;;125.83;;
8407;SDS011;4241;48.452;9.216;2024-03-08T13:32:38;433.00;;;124.10;;
8407;SDS011;4241;48.452;9.216;2024-03-08T13:35:05;437.53;;;126.93;;
8407;SDS011;4241;48.452;9.216;2024-03-08T13:37:38;431.03;;;122.93;;
8407;SDS011;4241;48.452;9.216;2024-03-08T13:40:06;435.03;;;125.47;;
8407;SDS011;4241;48.452;9.216;2024-03-08T13:42:36;439.67;;;129.57;;
8407;SDS011;4241;48.452;9.216;2024-03-08T13:45:03;438.63;;;128.23;;
8407;SDS011;4241;48.452;9.216;2024-03-08T13:47:32;438.53;;;128.33;;
8407;SDS011;4241;48.452;9.216;2024-03-08T13:49:59;437.77;;;127.53;;
8407;SDS011;4241;48.452;9.216;2024-03-08T13:52:26;439.20;;;129.27;;
8407;SDS011;4241;48.452;9.216;2024-03-08T13:54:55;436.87;;;126.27;;
8407;SDS011;4241;48.452;9.216;2024-03-08T13:57:22;438.93;;;128.20;;
8407;SDS011;4241;48.452;9.216;2024-03-08T13:59:49;437.47;;;127.63;;
8407;SDS011;4241;48.452;9.216;2024-03-08T14:02:16;439.80;;;128.80;;
8407;SDS011;4241;48.452;9.216;2024-03-08T14:04:43;436.83;;;125.17;;
8407;SDS011;4241;48.452;9.216;2024-03-08T14:07:10;440.30;;;129.37;;
8407;SDS011;4241;48.452;9.216;2024-03-08T14:09:37;437.50;;;127.70;;
8407;SDS011;4241;48.452;9.216;2024-03-08T14:12:09;440.63;;;129.93;;
8407;SDS011;4241;48.452;9.216;2024-03-08T14:14:36;438.77;;;127.30;;
8407;SDS011;4241;48.452;9.216;2024-03-08T14:17:03;439.37;;;128.63;;
8407;SDS011;4241;48.452;9.216;2024-03-08T14:19:32;437.53;;;126.60;;
8407;SDS011;4241;48.452;9.216;2024-03-08T14:22:00;445.00;;;132.70;;
8407;SDS011;4241;48.452;9.216;2024-03-08T14:24:29;439.87;;;127.97;;
8407;SDS011;4241;48.452;9.216;2024-03-08T14:26:56;444.20;;;131.83;;
8407;SDS011;4241;48.452;9.216;2024-03-08T14:29:25;440.67;;;128.73;;
8407;SDS011;4241;48.452;9.216;2024-03-08T14:31:54;442.93;;;130.27;;
8407;SDS011;4241;48.452;9.216;2024-03-08T14:34:22;438.20;;;127.33;;
8407;SDS011;4241;48.452;9.216;2024-03-08T14:36:52;439.50;;;127.30;;
8407;SDS011;4241;48.452;9.216;2024-03-08T14:39:19;437.00;;;125.03;;